sensor_id;sensor_type;location;lat;lon;timestamp;P1;durP1;ratioP1;P2;durP2;ratioP2
39490;SDS011;25175;50.140;18.990;2022-09-16T00:00:01;18.83;;;9.60;;
39490;SDS011;25175;50.140;18.990;2022-09-16T00:03:05;22.90;;;10.65;;
39490;SDS011;25175;50.140;18.990;2022-09-16T00:06:13;20.20;;;10.48;;
39490;SDS011;25175;50.140;18.990;2022-09-16T00:09:18;20.50;;;10.68;;
39490;SDS011;25175;50.140;18.990;2022-09-16T00:12:21;24.15;;;10.48;;
39490;SDS011;25175;50.140;18.990;2022-09-16T00:15:24;21.73;;;10.68;;
39490;SDS011;25175;50.140;18.990;2022-09-16T00:18:26;24.25;;;10.10;;
39490;SDS011;25175;50.140;18.990;2022-09-16T00:21:28;21.48;;;10.38;;
39490;SDS011;25175;50.140;18.990;2022-09-16T00:24:31;18.63;;;9.98;;
39490;SDS011;25175;50.140;18.990;2022-09-16T00:27:35;17.13;;;9.45;;
39490;SDS011;25175;50.140;18.990;2022-09-16T00:30:37;24.48;;;10.10;;
39490;SDS011;25175;50.140;18.990;2022-09-16T00:33:40;16.00;;;8.73;;
39490;SDS011;25175;50.140;18.990;2022-09-16T00:36:42;19.85;;;9.50;;
39490;SDS011;25175;50.140;18.990;2022-09-16T00:39:46;19.27;;;8.73;;
39490;SDS011;25175;50.140;18.990;2022-09-16T00:42:50;19.30;;;8.68;;
39490;SDS011;25175;50.140;18.990;2022-09-16T00:45:54;14.73;;;8.55;;
39490;SDS011;25175;50.140;18.990;2022-09-16T00:48:59;18.67;;;9.55;;
39490;SDS011;25175;50.140;18.990;2022-09-16T00:52:05;20.55;;;9.02;;
39490;SDS011;25175;50.140;18.990;2022-09-16T00:55:08;17.77;;;9.10;;
39490;SDS011;25175;50.140;18.990;2022-09-16T00:58:17;18.73;;;9.20;;
39490;SDS011;25175;50.140;18.990;2022-09-16T01:01:24;16.63;;;8.07;;
39490;SDS011;25175;50.140;18.990;2022-09-16T01:04:27;15.27;;;8.38;;
39490;SDS011;25175;50.140;18.990;2022-09-16T01:07:33;16.17;;;8.73;;
39490;SDS011;25175;50.140;18.990;2022-09-16T01:10:40;19.45;;;9.25;;
39490;SDS011;25175;50.140;18.990;2022-09-16T01:13:44;16.65;;;8.30;;
39490;SDS011;25175;50.140;18.990;2022-09-16T01:16:49;22.00;;;8.35;;
39490;SDS011;25175;50.140;18.990;2022-09-16T01:20:02;15.05;;;7.75;;
39490;SDS011;25175;50.140;18.990;2022-09-16T01:27:20;16.17;;;7.55;;
39490;SDS011;25175;50.140;18.990;2022-09-16T01:30:37;18.40;;;8.43;;
39490;SDS011;25175;50.140;18.990;2022-09-16T01:33:47;13.30;;;7.55;;
39490;SDS011;25175;50.140;18.990;2022-09-16T01:36:59;20.38;;;8.18;;
39490;SDS011;25175;50.140;18.990;2022-09-16T01:40:08;19.50;;;7.90;;
39490;SDS011;25175;50.140;18.990;2022-09-16T01:43:18;16.65;;;7.93;;
39490;SDS011;25175;50.140;18.990;2022-09-16T01:46:25;17.55;;;8.15;;
39490;SDS011;25175;50.140;18.990;2022-09-16T01:49:37;17.05;;;8.15;;
39490;SDS011;25175;50.140;18.990;2022-09-16T01:52:45;13.68;;;7.82;;
39490;SDS011;25175;50.140;18.990;2022-09-16T01:55:56;16.42;;;8.13;;
39490;SDS011;25175;50.140;18.990;2022-09-16T01:59:05;16.92;;;7.55;;
39490;SDS011;25175;50.140;18.990;2022-09-16T02:02:12;12.35;;;7.40;;
39490;SDS011;25175;50.140;18.990;2022-09-16T02:05:21;18.75;;;8.18;;
39490;SDS011;25175;50.140;18.990;2022-09-16T02:08:28;15.15;;;8.18;;
39490;SDS011;25175;50.140;18.990;2022-09-16T02:11:34;17.67;;;7.20;;
39490;SDS011;25175;50.140;18.990;2022-09-16T02:14:40;15.65;;;7.90;;
39490;SDS011;25175;50.140;18.990;2022-09-16T02:17:47;15.80;;;8.15;;
39490;SDS011;25175;50.140;18.990;2022-09-16T02:20:53;24.33;;;11.00;;
39490;SDS011;25175;50.140;18.990;2022-09-16T02:23:59;19.33;;;8.80;;
39490;SDS011;25175;50.140;18.990;2022-09-16T02:27:05;18.35;;;7.53;;
39490;SDS011;25175;50.140;18.990;2022-09-16T02:30:14;17.05;;;8.77;;
39490;SDS011;25175;50.140;18.990;2022-09-16T02:33:19;18.80;;;8.52;;
39490;SDS011;25175;50.140;18.990;2022-09-16T02:36:24;17.40;;;8.32;;
39490;SDS011;25175;50.140;18.990;2022-09-16T02:39:28;18.73;;;7.80;;
39490;SDS011;25175;50.140;18.990;2022-09-16T02:42:33;14.65;;;7.10;;
39490;SDS011;25175;50.140;18.990;2022-09-16T02:45:36;16.35;;;7.85;;
39490;SDS011;25175;50.140;18.990;2022-09-16T02:48:52;19.90;;;8.13;;
39490;SDS011;25175;50.140;18.990;2022-09-16T02:52:04;18.17;;;8.98;;
39490;SDS011;25175;50.140;18.990;2022-09-16T02:55:17;17.30;;;8.70;;
39490;SDS011;25175;50.140;18.990;2022-09-16T02:58:26;15.18;;;9.18;;
39490;SDS011;25175;50.140;18.990;2022-09-16T03:01:29;19.48;;;9.45;;
39490;SDS011;25175;50.140;18.990;2022-09-16T03:04:36;22.55;;;9.15;;
39490;SDS011;25175;50.140;18.990;2022-09-16T03:07:38;16.70;;;8.95;;
39490;SDS011;25175;50.140;18.990;2022-09-16T03:10:42;19.98;;;9.57;;
39490;SDS011;25175;50.140;18.990;2022-09-16T03:13:48;21.52;;;10.30;;
39490;SDS011;25175;50.140;18.990;2022-09-16T03:17:00;19.48;;;9.25;;
39490;SDS011;25175;50.140;18.990;2022-09-16T03:20:14;20.60;;;9.73;;
39490;SDS011;25175;50.140;18.990;2022-09-16T03:23:28;17.25;;;9.00;;
39490;SDS011;25175;50.140;18.990;2022-09-16T03:26:45;23.35;;;9.02;;
39490;SDS011;25175;50.140;18.990;2022-09-16T03:29:51;18.90;;;8.85;;
39490;SDS011;25175;50.140;18.990;2022-09-16T03:33:02;20.48;;;9.43;;
39490;SDS011;25175;50.140;18.990;2022-09-16T03:36:09;15.82;;;8.75;;
39490;SDS011;25175;50.140;18.990;2022-09-16T03:39:15;16.52;;;8.43;;
39490;SDS011;25175;50.140;18.990;2022-09-16T03:42:17;18.25;;;8.98;;
39490;SDS011;25175;50.140;18.990;2022-09-16T03:45:20;16.80;;;8.77;;
39490;SDS011;25175;50.140;18.990;2022-09-16T03:48:23;20.27;;;9.43;;
39490;SDS011;25175;50.140;18.990;2022-09-16T03:51:26;17.00;;;8.57;;
39490;SDS011;25175;50.140;18.990;2022-09-16T03:54:28;18.05;;;9.00;;
39490;SDS011;25175;50.140;18.990;2022-09-16T03:57:30;16.13;;;8.82;;
39490;SDS011;25175;50.140;18.990;2022-09-16T04:00:33;17.05;;;8.55;;
39490;SDS011;25175;50.140;18.990;2022-09-16T04:03:35;16.02;;;8.23;;
39490;SDS011;25175;50.140;18.990;2022-09-16T04:06:39;15.48;;;8.15;;
39490;SDS011;25175;50.140;18.990;2022-09-16T04:09:42;19.80;;;8.05;;
39490;SDS011;25175;50.140;18.990;2022-09-16T04:12:44;12.52;;;7.30;;
39490;SDS011;25175;50.140;18.990;2022-09-16T04:15:46;18.85;;;7.57;;
39490;SDS011;25175;50.140;18.990;2022-09-16T04:18:48;16.83;;;7.57;;
39490;SDS011;25175;50.140;18.990;2022-09-16T04:21:52;16.70;;;7.72;;
39490;SDS011;25175;50.140;18.990;2022-09-16T04:24:54;17.83;;;8.43;;
39490;SDS011;25175;50.140;18.990;2022-09-16T04:27:56;17.25;;;8.30;;
39490;SDS011;25175;50.140;18.990;2022-09-16T04:30:59;20.50;;;9.35;;
39490;SDS011;25175;50.140;18.990;2022-09-16T04:34:02;18.70;;;9.07;;
39490;SDS011;25175;50.140;18.990;2022-09-16T04:37:07;14.32;;;8.23;;
39490;SDS011;25175;50.140;18.990;2022-09-16T04:40:09;17.55;;;7.95;;
39490;SDS011;25175;50.140;18.990;2022-09-16T04:43:12;17.95;;;8.93;;
39490;SDS011;25175;50.140;18.990;2022-09-16T04:46:14;14.55;;;8.18;;
39490;SDS011;25175;50.140;18.990;2022-09-16T04:49:17;14.48;;;7.97;;
39490;SDS011;25175;50.140;18.990;2022-09-16T04:52:20;16.45;;;7.90;;
39490;SDS011;25175;50.140;18.990;2022-09-16T04:55:22;14.02;;;7.95;;
39490;SDS011;25175;50.140;18.990;2022-09-16T04:58:24;17.42;;;9.02;;
39490;SDS011;25175;50.140;18.990;2022-09-16T05:01:27;18.27;;;8.00;;
39490;SDS011;25175;50.140;18.990;2022-09-16T05:04:30;18.27;;;7.22;;
39490;SDS011;25175;50.140;18.990;2022-09-16T05:07:34;17.15;;;7.25;;
39490;SDS011;25175;50.140;18.990;2022-09-16T05:10:36;17.20;;;7.10;;
39490;SDS011;25175;50.140;18.990;2022-09-16T05:13:38;12.98;;;7.50;;
39490;SDS011;25175;50.140;18.990;2022-09-16T05:16:41;22.33;;;7.10;;
39490;SDS011;25175;50.140;18.990;2022-09-16T05:19:44;12.73;;;7.88;;
39490;SDS011;25175;50.140;18.990;2022-09-16T05:22:49;11.18;;;6.70;;
39490;SDS011;25175;50.140;18.990;2022-09-16T05:25:51;12.63;;;7.15;;
39490;SDS011;25175;50.140;18.990;2022-09-16T05:28:54;17.63;;;7.43;;
39490;SDS011;25175;50.140;18.990;2022-09-16T05:31:56;11.82;;;6.80;;
39490;SDS011;25175;50.140;18.990;2022-09-16T05:34:58;15.93;;;8.05;;
39490;SDS011;25175;50.140;18.990;2022-09-16T05:38:02;17.70;;;8.43;;
39490;SDS011;25175;50.140;18.990;2022-09-16T05:41:04;14.88;;;8.68;;
39490;SDS011;25175;50.140;18.990;2022-09-16T05:44:07;17.48;;;8.20;;
39490;SDS011;25175;50.140;18.990;2022-09-16T05:47:09;18.15;;;9.20;;
39490;SDS011;25175;50.140;18.990;2022-09-16T05:50:11;18.50;;;9.43;;
39490;SDS011;25175;50.140;18.990;2022-09-16T05:53:15;22.33;;;9.88;;
39490;SDS011;25175;50.140;18.990;2022-09-16T05:56:17;17.95;;;9.73;;
39490;SDS011;25175;50.140;18.990;2022-09-16T05:59:21;19.45;;;10.27;;
39490;SDS011;25175;50.140;18.990;2022-09-16T06:02:24;21.33;;;10.80;;
39490;SDS011;25175;50.140;18.990;2022-09-16T06:05:26;21.27;;;10.73;;
39490;SDS011;25175;50.140;18.990;2022-09-16T06:08:31;23.77;;;10.88;;
39490;SDS011;25175;50.140;18.990;2022-09-16T06:11:34;22.88;;;9.98;;
39490;SDS011;25175;50.140;18.990;2022-09-16T06:14:37;21.88;;;10.90;;
39490;SDS011;25175;50.140;18.990;2022-09-16T06:17:39;19.48;;;10.55;;
39490;SDS011;25175;50.140;18.990;2022-09-16T06:20:42;95.75;;;38.22;;
39490;SDS011;25175;50.140;18.990;2022-09-16T06:23:46;37.38;;;18.48;;
39490;SDS011;25175;50.140;18.990;2022-09-16T06:26:48;32.13;;;16.60;;
39490;SDS011;25175;50.140;18.990;2022-09-16T06:29:50;28.52;;;11.50;;
39490;SDS011;25175;50.140;18.990;2022-09-16T06:32:52;36.20;;;16.73;;
39490;SDS011;25175;50.140;18.990;2022-09-16T06:35:54;22.27;;;10.48;;
39490;SDS011;25175;50.140;18.990;2022-09-16T06:38:59;19.35;;;8.68;;
39490;SDS011;25175;50.140;18.990;2022-09-16T06:42:01;17.77;;;9.00;;
39490;SDS011;25175;50.140;18.990;2022-09-16T06:45:14;25.55;;;8.65;;
39490;SDS011;25175;50.140;18.990;2022-09-16T06:48:16;18.23;;;9.00;;
39490;SDS011;25175;50.140;18.990;2022-09-16T06:51:19;16.80;;;8.63;;
39490;SDS011;25175;50.140;18.990;2022-09-16T06:54:23;18.33;;;8.68;;
39490;SDS011;25175;50.140;18.990;2022-09-16T06:57:26;17.08;;;8.80;;
39490;SDS011;25175;50.140;18.990;2022-09-16T07:00:28;19.38;;;8.75;;
39490;SDS011;25175;50.140;18.990;2022-09-16T07:03:30;14.45;;;8.10;;
39490;SDS011;25175;50.140;18.990;2022-09-16T07:06:32;14.52;;;8.23;;
39490;SDS011;25175;50.140;18.990;2022-09-16T07:09:36;18.17;;;8.30;;
39490;SDS011;25175;50.140;18.990;2022-09-16T07:12:38;15.27;;;7.97;;
39490;SDS011;25175;50.140;18.990;2022-09-16T07:15:40;15.38;;;8.25;;
39490;SDS011;25175;50.140;18.990;2022-09-16T07:18:43;15.70;;;7.90;;
39490;SDS011;25175;50.140;18.990;2022-09-16T07:21:46;16.20;;;7.75;;
39490;SDS011;25175;50.140;18.990;2022-09-16T07:25:10;17.42;;;7.70;;
39490;SDS011;25175;50.140;18.990;2022-09-16T07:28:12;14.35;;;7.50;;
39490;SDS011;25175;50.140;18.990;2022-09-16T07:31:15;16.73;;;6.88;;
39490;SDS011;25175;50.140;18.990;2022-09-16T07:34:19;16.70;;;7.50;;
39490;SDS011;25175;50.140;18.990;2022-09-16T07:37:21;16.67;;;7.55;;
39490;SDS011;25175;50.140;18.990;2022-09-16T07:40:24;12.00;;;6.85;;
39490;SDS011;25175;50.140;18.990;2022-09-16T07:43:27;17.15;;;7.38;;
39490;SDS011;25175;50.140;18.990;2022-09-16T07:46:30;15.63;;;7.05;;
39490;SDS011;25175;50.140;18.990;2022-09-16T07:49:33;13.82;;;7.45;;
39490;SDS011;25175;50.140;18.990;2022-09-16T07:52:36;11.07;;;6.57;;
39490;SDS011;25175;50.140;18.990;2022-09-16T07:55:39;12.63;;;6.70;;
39490;SDS011;25175;50.140;18.990;2022-09-16T07:58:42;12.18;;;6.68;;
39490;SDS011;25175;50.140;18.990;2022-09-16T08:01:46;11.77;;;6.05;;
39490;SDS011;25175;50.140;18.990;2022-09-16T08:04:48;14.48;;;6.82;;
39490;SDS011;25175;50.140;18.990;2022-09-16T08:07:50;13.32;;;6.72;;
39490;SDS011;25175;50.140;18.990;2022-09-16T08:10:54;13.40;;;6.18;;
39490;SDS011;25175;50.140;18.990;2022-09-16T08:13:57;10.07;;;5.88;;
39490;SDS011;25175;50.140;18.990;2022-09-16T08:17:00;11.10;;;5.65;;
39490;SDS011;25175;50.140;18.990;2022-09-16T08:20:03;13.55;;;5.85;;
39490;SDS011;25175;50.140;18.990;2022-09-16T08:23:08;10.50;;;4.70;;
39490;SDS011;25175;50.140;18.990;2022-09-16T08:26:12;10.73;;;5.15;;
39490;SDS011;25175;50.140;18.990;2022-09-16T08:29:16;10.55;;;4.80;;
39490;SDS011;25175;50.140;18.990;2022-09-16T08:32:18;9.07;;;4.85;;
39490;SDS011;25175;50.140;18.990;2022-09-16T08:35:20;13.43;;;5.00;;
39490;SDS011;25175;50.140;18.990;2022-09-16T08:38:22;11.13;;;5.13;;
39490;SDS011;25175;50.140;18.990;2022-09-16T08:41:28;11.90;;;5.05;;
39490;SDS011;25175;50.140;18.990;2022-09-16T08:44:39;9.32;;;4.75;;
39490;SDS011;25175;50.140;18.990;2022-09-16T08:47:54;9.10;;;4.32;;
39490;SDS011;25175;50.140;18.990;2022-09-16T08:51:10;9.35;;;4.18;;
39490;SDS011;25175;50.140;18.990;2022-09-16T08:54:20;8.50;;;4.22;;
39490;SDS011;25175;50.140;18.990;2022-09-16T08:57:30;9.38;;;4.28;;
39490;SDS011;25175;50.140;18.990;2022-09-16T09:00:36;9.10;;;4.32;;
39490;SDS011;25175;50.140;18.990;2022-09-16T09:03:41;7.95;;;3.92;;
39490;SDS011;25175;50.140;18.990;2022-09-16T09:06:48;6.55;;;4.20;;
39490;SDS011;25175;50.140;18.990;2022-09-16T09:10:00;8.95;;;4.18;;
39490;SDS011;25175;50.140;18.990;2022-09-16T09:13:12;7.95;;;3.92;;
39490;SDS011;25175;50.140;18.990;2022-09-16T09:16:39;6.13;;;3.95;;
39490;SDS011;25175;50.140;18.990;2022-09-16T09:19:51;6.70;;;3.55;;
39490;SDS011;25175;50.140;18.990;2022-09-16T09:23:14;9.57;;;3.83;;
39490;SDS011;25175;50.140;18.990;2022-09-16T09:26:29;8.30;;;3.42;;
39490;SDS011;25175;50.140;18.990;2022-09-16T09:29:45;5.63;;;3.35;;
39490;SDS011;25175;50.140;18.990;2022-09-16T09:33:05;7.10;;;3.53;;
39490;SDS011;25175;50.140;18.990;2022-09-16T09:36:24;5.88;;;3.03;;
39490;SDS011;25175;50.140;18.990;2022-09-16T09:39:43;7.32;;;3.05;;
39490;SDS011;25175;50.140;18.990;2022-09-16T09:43:04;7.38;;;3.50;;
39490;SDS011;25175;50.140;18.990;2022-09-16T09:46:15;10.52;;;3.35;;
39490;SDS011;25175;50.140;18.990;2022-09-16T09:49:25;11.02;;;3.92;;
39490;SDS011;25175;50.140;18.990;2022-09-16T09:52:30;5.60;;;3.30;;
39490;SDS011;25175;50.140;18.990;2022-09-16T09:55:41;5.53;;;3.10;;
39490;SDS011;25175;50.140;18.990;2022-09-16T09:58:47;9.30;;;3.60;;
39490;SDS011;25175;50.140;18.990;2022-09-16T10:01:59;7.63;;;3.47;;
39490;SDS011;25175;50.140;18.990;2022-09-16T10:05:02;10.93;;;4.07;;
39490;SDS011;25175;50.140;18.990;2022-09-16T10:08:11;5.00;;;3.45;;
39490;SDS011;25175;50.140;18.990;2022-09-16T10:11:18;8.63;;;3.38;;
39490;SDS011;25175;50.140;18.990;2022-09-16T10:14:23;5.68;;;3.15;;
39490;SDS011;25175;50.140;18.990;2022-09-16T10:17:29;4.55;;;3.30;;
39490;SDS011;25175;50.140;18.990;2022-09-16T10:20:33;8.63;;;3.38;;
39490;SDS011;25175;50.140;18.990;2022-09-16T10:23:37;5.93;;;3.00;;
39490;SDS011;25175;50.140;18.990;2022-09-16T10:26:40;5.55;;;3.20;;
39490;SDS011;25175;50.140;18.990;2022-09-16T10:29:42;6.10;;;3.53;;
39490;SDS011;25175;50.140;18.990;2022-09-16T10:32:47;7.25;;;3.65;;
39490;SDS011;25175;50.140;18.990;2022-09-16T10:35:52;8.52;;;4.15;;
39490;SDS011;25175;50.140;18.990;2022-09-16T10:38:58;7.30;;;4.60;;
39490;SDS011;25175;50.140;18.990;2022-09-16T10:42:02;6.82;;;4.20;;
39490;SDS011;25175;50.140;18.990;2022-09-16T10:45:09;11.05;;;4.65;;
39490;SDS011;25175;50.140;18.990;2022-09-16T10:48:18;9.20;;;4.68;;
39490;SDS011;25175;50.140;18.990;2022-09-16T10:51:23;8.05;;;3.90;;
39490;SDS011;25175;50.140;18.990;2022-09-16T10:54:26;4.60;;;3.38;;
39490;SDS011;25175;50.140;18.990;2022-09-16T10:57:29;6.30;;;3.42;;
39490;SDS011;25175;50.140;18.990;2022-09-16T11:00:35;8.25;;;3.80;;
39490;SDS011;25175;50.140;18.990;2022-09-16T11:07:20;5.25;;;3.60;;
39490;SDS011;25175;50.140;18.990;2022-09-16T11:10:34;9.20;;;3.13;;
39490;SDS011;25175;50.140;18.990;2022-09-16T11:13:45;16.08;;;6.90;;
39490;SDS011;25175;50.140;18.990;2022-09-16T11:17:08;11.43;;;5.97;;
39490;SDS011;25175;50.140;18.990;2022-09-16T11:20:32;9.98;;;4.15;;
39490;SDS011;25175;50.140;18.990;2022-09-16T11:24:03;6.32;;;4.10;;
39490;SDS011;25175;50.140;18.990;2022-09-16T11:27:33;6.13;;;3.80;;
39490;SDS011;25175;50.140;18.990;2022-09-16T11:30:46;8.63;;;3.92;;
39490;SDS011;25175;50.140;18.990;2022-09-16T11:33:54;10.70;;;4.15;;
39490;SDS011;25175;50.140;18.990;2022-09-16T11:37:06;9.55;;;4.25;;
39490;SDS011;25175;50.140;18.990;2022-09-16T11:40:20;9.82;;;4.05;;
39490;SDS011;25175;50.140;18.990;2022-09-16T11:43:37;6.32;;;4.28;;
39490;SDS011;25175;50.140;18.990;2022-09-16T11:46:50;8.30;;;3.80;;
39490;SDS011;25175;50.140;18.990;2022-09-16T11:50:13;8.30;;;4.18;;
39490;SDS011;25175;50.140;18.990;2022-09-16T11:53:29;8.02;;;3.97;;
39490;SDS011;25175;50.140;18.990;2022-09-16T11:56:40;7.13;;;3.90;;
39490;SDS011;25175;50.140;18.990;2022-09-16T11:59:48;6.25;;;3.47;;
39490;SDS011;25175;50.140;18.990;2022-09-16T12:02:56;8.57;;;3.30;;
39490;SDS011;25175;50.140;18.990;2022-09-16T12:06:03;7.35;;;3.17;;
39490;SDS011;25175;50.140;18.990;2022-09-16T12:09:12;5.80;;;3.20;;
39490;SDS011;25175;50.140;18.990;2022-09-16T12:12:21;8.10;;;3.20;;
39490;SDS011;25175;50.140;18.990;2022-09-16T12:15:28;8.00;;;3.42;;
39490;SDS011;25175;50.140;18.990;2022-09-16T12:18:35;8.68;;;3.60;;
39490;SDS011;25175;50.140;18.990;2022-09-16T12:21:43;8.95;;;3.55;;
39490;SDS011;25175;50.140;18.990;2022-09-16T12:24:54;7.95;;;3.30;;
39490;SDS011;25175;50.140;18.990;2022-09-16T12:28:02;7.10;;;3.45;;
39490;SDS011;25175;50.140;18.990;2022-09-16T12:31:12;7.05;;;3.55;;
39490;SDS011;25175;50.140;18.990;2022-09-16T12:34:18;6.20;;;3.58;;
39490;SDS011;25175;50.140;18.990;2022-09-16T12:37:28;8.60;;;3.85;;
39490;SDS011;25175;50.140;18.990;2022-09-16T12:40:40;11.48;;;3.38;;
39490;SDS011;25175;50.140;18.990;2022-09-16T12:44:10;6.60;;;3.28;;
39490;SDS011;25175;50.140;18.990;2022-09-16T12:47:35;8.32;;;3.90;;
39490;SDS011;25175;50.140;18.990;2022-09-16T12:50:53;8.43;;;3.83;;
39490;SDS011;25175;50.140;18.990;2022-09-16T12:54:19;8.07;;;3.35;;
39490;SDS011;25175;50.140;18.990;2022-09-16T12:57:39;6.90;;;3.80;;
39490;SDS011;25175;50.140;18.990;2022-09-16T13:00:51;5.65;;;3.67;;
39490;SDS011;25175;50.140;18.990;2022-09-16T13:04:00;8.25;;;3.80;;
39490;SDS011;25175;50.140;18.990;2022-09-16T13:07:14;7.13;;;3.35;;
39490;SDS011;25175;50.140;18.990;2022-09-16T13:10:24;6.20;;;3.22;;
39490;SDS011;25175;50.140;18.990;2022-09-16T13:13:33;5.75;;;3.50;;
39490;SDS011;25175;50.140;18.990;2022-09-16T13:16:38;6.32;;;3.28;;
39490;SDS011;25175;50.140;18.990;2022-09-16T13:19:43;9.60;;;3.92;;
39490;SDS011;25175;50.140;18.990;2022-09-16T13:22:55;8.20;;;3.95;;
39490;SDS011;25175;50.140;18.990;2022-09-16T13:26:05;10.75;;;3.75;;
39490;SDS011;25175;50.140;18.990;2022-09-16T13:29:29;6.95;;;3.20;;
39490;SDS011;25175;50.140;18.990;2022-09-16T13:32:43;6.00;;;3.60;;
39490;SDS011;25175;50.140;18.990;2022-09-16T13:35:47;14.00;;;3.53;;
39490;SDS011;25175;50.140;18.990;2022-09-16T13:38:51;7.10;;;3.50;;
39490;SDS011;25175;50.140;18.990;2022-09-16T13:41:54;8.65;;;3.97;;
39490;SDS011;25175;50.140;18.990;2022-09-16T13:44:58;6.35;;;3.63;;
39490;SDS011;25175;50.140;18.990;2022-09-16T13:48:01;7.32;;;3.55;;
39490;SDS011;25175;50.140;18.990;2022-09-16T13:51:15;8.48;;;3.22;;
39490;SDS011;25175;50.140;18.990;2022-09-16T13:54:21;6.03;;;3.45;;
39490;SDS011;25175;50.140;18.990;2022-09-16T13:57:31;5.03;;;3.08;;
39490;SDS011;25175;50.140;18.990;2022-09-16T14:00:55;5.70;;;2.90;;
39490;SDS011;25175;50.140;18.990;2022-09-16T14:04:04;6.20;;;3.10;;
39490;SDS011;25175;50.140;18.990;2022-09-16T14:07:18;8.07;;;3.40;;
39490;SDS011;25175;50.140;18.990;2022-09-16T14:10:29;10.57;;;3.10;;
39490;SDS011;25175;50.140;18.990;2022-09-16T14:13:39;5.70;;;3.00;;
39490;SDS011;25175;50.140;18.990;2022-09-16T14:16:47;7.78;;;2.90;;
39490;SDS011;25175;50.140;18.990;2022-09-16T14:19:51;6.53;;;3.30;;
39490;SDS011;25175;50.140;18.990;2022-09-16T14:23:00;10.02;;;3.03;;
39490;SDS011;25175;50.140;18.990;2022-09-16T14:26:09;7.93;;;3.40;;
39490;SDS011;25175;50.140;18.990;2022-09-16T14:29:13;10.68;;;3.85;;
39490;SDS011;25175;50.140;18.990;2022-09-16T14:32:17;7.35;;;3.75;;
39490;SDS011;25175;50.140;18.990;2022-09-16T14:35:20;7.53;;;3.60;;
39490;SDS011;25175;50.140;18.990;2022-09-16T14:38:30;6.10;;;3.22;;
39490;SDS011;25175;50.140;18.990;2022-09-16T14:41:36;6.22;;;2.85;;
39490;SDS011;25175;50.140;18.990;2022-09-16T14:44:41;6.50;;;2.70;;
39490;SDS011;25175;50.140;18.990;2022-09-16T14:47:48;8.30;;;2.53;;
39490;SDS011;25175;50.140;18.990;2022-09-16T14:50:56;6.47;;;2.80;;
39490;SDS011;25175;50.140;18.990;2022-09-16T14:53:58;6.05;;;2.80;;
39490;SDS011;25175;50.140;18.990;2022-09-16T14:57:04;6.70;;;4.00;;
39490;SDS011;25175;50.140;18.990;2022-09-16T15:00:11;5.45;;;3.22;;
39490;SDS011;25175;50.140;18.990;2022-09-16T15:03:18;6.57;;;3.35;;
39490;SDS011;25175;50.140;18.990;2022-09-16T15:06:26;7.97;;;3.33;;
39490;SDS011;25175;50.140;18.990;2022-09-16T15:09:44;8.23;;;3.25;;
39490;SDS011;25175;50.140;18.990;2022-09-16T15:12:51;4.88;;;3.20;;
39490;SDS011;25175;50.140;18.990;2022-09-16T15:15:55;8.90;;;4.10;;
39490;SDS011;25175;50.140;18.990;2022-09-16T15:19:04;6.28;;;3.63;;
39490;SDS011;25175;50.140;18.990;2022-09-16T15:22:07;7.25;;;3.20;;
39490;SDS011;25175;50.140;18.990;2022-09-16T15:25:18;8.02;;;3.22;;
39490;SDS011;25175;50.140;18.990;2022-09-16T15:28:23;8.55;;;3.30;;
39490;SDS011;25175;50.140;18.990;2022-09-16T15:31:36;6.03;;;4.50;;
39490;SDS011;25175;50.140;18.990;2022-09-16T15:34:41;7.82;;;3.88;;
39490;SDS011;25175;50.140;18.990;2022-09-16T15:37:44;12.27;;;6.00;;
39490;SDS011;25175;50.140;18.990;2022-09-16T15:40:47;7.72;;;5.22;;
39490;SDS011;25175;50.140;18.990;2022-09-16T15:44:00;11.50;;;5.60;;
39490;SDS011;25175;50.140;18.990;2022-09-16T15:47:14;13.85;;;6.82;;
39490;SDS011;25175;50.140;18.990;2022-09-16T15:50:20;8.88;;;5.15;;
39490;SDS011;25175;50.140;18.990;2022-09-16T15:53:33;13.38;;;5.25;;
39490;SDS011;25175;50.140;18.990;2022-09-16T15:56:39;9.57;;;4.38;;
39490;SDS011;25175;50.140;18.990;2022-09-16T15:59:54;18.65;;;6.53;;
39490;SDS011;25175;50.140;18.990;2022-09-16T16:03:15;20.15;;;8.13;;
39490;SDS011;25175;50.140;18.990;2022-09-16T16:06:38;20.33;;;9.48;;
39490;SDS011;25175;50.140;18.990;2022-09-16T16:09:46;12.77;;;7.35;;
39490;SDS011;25175;50.140;18.990;2022-09-16T16:12:48;16.17;;;8.45;;
39490;SDS011;25175;50.140;18.990;2022-09-16T16:15:53;15.55;;;7.60;;
39490;SDS011;25175;50.140;18.990;2022-09-16T16:18:57;15.07;;;8.90;;
39490;SDS011;25175;50.140;18.990;2022-09-16T16:22:01;19.98;;;9.55;;
39490;SDS011;25175;50.140;18.990;2022-09-16T16:25:04;13.35;;;7.35;;
39490;SDS011;25175;50.140;18.990;2022-09-16T16:28:09;15.43;;;6.57;;
39490;SDS011;25175;50.140;18.990;2022-09-16T16:31:12;13.77;;;5.85;;
39490;SDS011;25175;50.140;18.990;2022-09-16T16:34:16;12.27;;;5.45;;
39490;SDS011;25175;50.140;18.990;2022-09-16T16:37:19;7.82;;;3.40;;
39490;SDS011;25175;50.140;18.990;2022-09-16T16:40:22;8.70;;;4.20;;
39490;SDS011;25175;50.140;18.990;2022-09-16T16:43:24;6.57;;;4.07;;
39490;SDS011;25175;50.140;18.990;2022-09-16T16:46:26;8.27;;;3.53;;
39490;SDS011;25175;50.140;18.990;2022-09-16T16:49:30;9.50;;;4.38;;
39490;SDS011;25175;50.140;18.990;2022-09-16T16:52:34;8.75;;;3.55;;
39490;SDS011;25175;50.140;18.990;2022-09-16T16:55:37;8.23;;;3.90;;
39490;SDS011;25175;50.140;18.990;2022-09-16T16:58:41;9.65;;;5.20;;
39490;SDS011;25175;50.140;18.990;2022-09-16T17:01:44;16.05;;;7.13;;
39490;SDS011;25175;50.140;18.990;2022-09-16T17:04:47;10.57;;;4.93;;
39490;SDS011;25175;50.140;18.990;2022-09-16T17:07:51;11.32;;;4.43;;
39490;SDS011;25175;50.140;18.990;2022-09-16T17:11:03;9.23;;;4.80;;
39490;SDS011;25175;50.140;18.990;2022-09-16T17:14:06;8.45;;;4.30;;
39490;SDS011;25175;50.140;18.990;2022-09-16T17:17:09;12.82;;;6.35;;
39490;SDS011;25175;50.140;18.990;2022-09-16T17:20:12;17.02;;;8.05;;
39490;SDS011;25175;50.140;18.990;2022-09-16T17:23:16;29.80;;;11.60;;
39490;SDS011;25175;50.140;18.990;2022-09-16T17:26:18;17.40;;;8.00;;
39490;SDS011;25175;50.140;18.990;2022-09-16T17:29:21;14.82;;;7.20;;
39490;SDS011;25175;50.140;18.990;2022-09-16T17:32:23;25.92;;;12.98;;
39490;SDS011;25175;50.140;18.990;2022-09-16T17:35:26;33.60;;;16.85;;
39490;SDS011;25175;50.140;18.990;2022-09-16T17:38:30;22.63;;;12.10;;
39490;SDS011;25175;50.140;18.990;2022-09-16T17:41:32;15.50;;;7.68;;
39490;SDS011;25175;50.140;18.990;2022-09-16T17:44:35;11.68;;;6.40;;
39490;SDS011;25175;50.140;18.990;2022-09-16T17:47:38;14.35;;;7.00;;
39490;SDS011;25175;50.140;18.990;2022-09-16T17:50:40;16.65;;;7.93;;
39490;SDS011;25175;50.140;18.990;2022-09-16T17:53:44;17.02;;;7.30;;
39490;SDS011;25175;50.140;18.990;2022-09-16T17:56:47;17.08;;;7.60;;
39490;SDS011;25175;50.140;18.990;2022-09-16T17:59:49;14.70;;;7.43;;
39490;SDS011;25175;50.140;18.990;2022-09-16T18:02:52;19.23;;;8.70;;
39490;SDS011;25175;50.140;18.990;2022-09-16T18:06:01;14.45;;;7.25;;
39490;SDS011;25175;50.140;18.990;2022-09-16T18:09:05;16.10;;;7.60;;
39490;SDS011;25175;50.140;18.990;2022-09-16T18:12:08;18.50;;;7.43;;
39490;SDS011;25175;50.140;18.990;2022-09-16T18:15:10;15.80;;;6.72;;
39490;SDS011;25175;50.140;18.990;2022-09-16T18:18:16;14.82;;;6.88;;
39490;SDS011;25175;50.140;18.990;2022-09-16T18:21:22;12.88;;;6.95;;
39490;SDS011;25175;50.140;18.990;2022-09-16T18:24:26;14.48;;;6.97;;